createdAt,value
2019-06-10T00:00:18.314Z,97482.95
2019-06-10T00:02:45.174Z,97480.33
2019-06-10T00:05:12.004Z,97476.38
2019-06-10T00:07:40.950Z,97476.38
2019-06-10T00:10:07.547Z,97468.19
2019-06-10T00:12:34.483Z,97459.81
2019-06-10T00:15:02.920Z,97461.91
2019-06-10T00:17:31.407Z,97455.34
2019-06-10T00:19:59.193Z,97452.41
2019-06-10T00:22:27.003Z,97449.29
2019-06-10T00:24:53.833Z,97449.29
2019-06-10T00:27:21.570Z,97445.05
2019-06-10T00:29:48.517Z,97444.52
2019-06-10T00:32:15.306Z,97441.40
2019-06-10T00:34:42.148Z,97443.73
2019-06-10T00:37:12.006Z,97435.31
2019-06-10T00:39:37.536Z,97438.25
2019-06-10T00:42:07.550Z,97440.08
2019-06-10T00:44:32.931Z,97437.95
2019-06-10T00:47:00.713Z,97434.83
2019-06-10T00:49:28.275Z,97429.56
2019-06-10T00:51:55.095Z,97417.20
2019-06-10T00:54:22.107Z,97412.97
2019-06-10T00:56:51.492Z,97397.19
2019-06-10T00:59:17.842Z,97395.08
2019-06-10T01:01:44.712Z,97399.03
2019-06-10T01:04:15.935Z,97397.19
2019-06-10T01:06:42.319Z,97392.45
2019-06-10T01:09:09.444Z,97398.02
2019-06-10T01:11:37.455Z,97397.71
2019-06-10T01:14:05.190Z,97400.64
2019-06-10T01:16:32.190Z,97396.92
2019-06-10T01:19:01.287Z,97387.72
2019-06-10T01:21:27.563Z,97377.20
2019-06-10T01:23:54.426Z,97375.88
2019-06-10T01:26:21.662Z,97375.09
2019-06-10T01:28:48.591Z,97377.98
2019-06-10T01:31:19.160Z,97379.60
2019-06-10T01:33:44.028Z,97376.67
2019-06-10T01:36:13.400Z,97375.88
2019-06-10T01:38:40.942Z,97368.00
2019-06-10T01:41:08.738Z,97374.05
2019-06-10T01:43:36.557Z,97368.00
2019-06-10T01:46:03.371Z,97362.47
2019-06-10T01:48:43.212Z,97361.42
2019-06-10T01:50:58.708Z,97363.52
2019-06-10T01:53:25.509Z,97354.58
2019-06-10T01:55:52.340Z,97350.11
2019-06-10T01:58:23.284Z,97346.95
2019-06-10T02:00:50.758Z,97352.22
2019-06-10T02:03:18.930Z,97357.48
2019-06-10T02:05:46.256Z,97363.52
2019-06-10T02:08:14.579Z,97361.95
2019-06-10T02:10:41.697Z,97388.77
2019-06-10T02:13:12.120Z,97375.88
2019-06-10T02:15:40.942Z,97385.88
2019-06-10T02:18:07.229Z,97399.03
2019-06-10T02:20:34.063Z,97390.12
2019-06-10T02:23:02.026Z,97380.35
2019-06-10T02:25:30.491Z,97369.58
2019-06-10T02:27:57.424Z,97365.63
2019-06-10T02:30:39.352Z,97358.52
2019-06-10T02:32:52.745Z,97354.58
2019-06-10T02:35:30.486Z,97357.73
2019-06-10T02:37:48.103Z,97363.78
2019-06-10T02:40:20.587Z,97365.63
2019-06-10T02:42:45.053Z,97370.36
2019-06-10T02:45:17.343Z,97364.83
2019-06-10T02:47:40.339Z,97364.04
2019-06-10T02:50:08.829Z,97360.62
2019-06-10T02:52:38.514Z,97364.56
2019-06-10T02:55:04.644Z,97404.27
2019-06-10T02:57:39.018Z,97459.77
2019-06-10T03:00:04.228Z,97483.16
2019-06-10T03:02:32.005Z,97488.69
2019-06-10T03:04:57.176Z,97481.05
2019-06-10T03:07:28.333Z,97459.75
2019-06-10T03:09:53.694Z,97451.86
2019-06-10T03:12:24.273Z,97445.81
2019-06-10T03:14:49.447Z,97440.03
2019-06-10T03:17:17.898Z,97431.34
2019-06-10T03:19:50.396Z,97422.67
2019-06-10T03:22:13.196Z,97418.20
2019-06-10T03:24:42.056Z,97414.26
2019-06-10T03:27:08.464Z,97405.58
2019-06-10T03:29:35.233Z,97394.53
2019-06-10T03:32:04.973Z,97378.48
2019-06-10T03:34:40.204Z,97351.41
2019-06-10T03:36:59.059Z,97299.87
2019-06-10T03:39:28.401Z,97192.85
2019-06-10T03:41:54.345Z,97176.03
2019-06-10T03:44:23.550Z,97172.08
2019-06-10T03:46:49.674Z,97191.55
2019-06-10T03:49:17.129Z,97189.17
2019-06-10T03:51:44.116Z,97173.92
2019-06-10T03:54:13.011Z,97194.96
2019-06-10T03:56:39.412Z,97299.88
2019-06-10T03:59:06.172Z,97381.92
2019-06-10T04:01:33.449Z,97388.23
2019-06-10T04:04:02.351Z,97352.72
2019-06-10T04:06:29.714Z,97341.41
2019-06-10T04:08:56.476Z,97366.91
2019-06-10T04:11:25.555Z,97361.92
2019-06-10T04:13:53.511Z,97353.24
2019-06-10T04:16:22.617Z,97345.09
2019-06-10T04:18:48.802Z,97342.99
2019-06-10T04:21:15.577Z,97340.63
2019-06-10T04:23:42.635Z,97336.41
2019-06-10T04:26:09.448Z,97333.53
2019-06-10T04:28:36.235Z,97323.27
2019-06-10T04:31:03.304Z,97308.28
2019-06-10T04:33:30.064Z,97324.58
2019-06-10T04:35:56.859Z,97316.69
2019-06-10T04:38:26.029Z,97307.76
2019-06-10T04:40:52.615Z,97300.91
2019-06-10T04:43:20.415Z,97289.08
2019-06-10T04:45:47.833Z,97273.30
2019-06-10T04:48:14.606Z,97280.41
2019-06-10T04:50:45.987Z,97308.02
2019-06-10T04:53:10.198Z,97318.80
2019-06-10T04:55:36.974Z,97316.44
2019-06-10T04:58:03.741Z,97308.80
2019-06-10T05:00:33.050Z,97310.12
2019-06-10T05:02:59.054Z,97325.89
2019-06-10T05:05:27.287Z,97324.05
2019-06-10T05:07:54.458Z,97324.05
2019-06-10T05:10:23.673Z,97331.67
2019-06-10T05:12:49.758Z,97326.42
2019-06-10T05:15:16.577Z,97314.59
2019-06-10T05:17:43.939Z,97308.80
2019-06-10T05:20:12.543Z,97312.48
2019-06-10T05:22:39.318Z,97308.54
2019-06-10T05:25:06.142Z,97307.22
2019-06-10T05:27:33.201Z,97311.44
2019-06-10T05:30:02.298Z,97204.55
2019-06-10T05:32:29.035Z,97306.70
2019-06-10T05:34:55.916Z,97289.87
2019-06-10T05:37:23.756Z,97295.13
2019-06-10T05:39:52.678Z,97296.70
2019-06-10T05:42:19.713Z,97273.05
2019-06-10T05:44:46.544Z,97264.36
2019-06-10T05:47:13.318Z,97268.83
2019-06-10T05:49:40.103Z,97302.75
2019-06-10T05:52:06.889Z,97309.59
2019-06-10T05:54:35.327Z,97314.59
2019-06-10T05:57:02.639Z,97325.89
2019-06-10T05:59:29.487Z,97294.08
2019-06-10T06:01:56.307Z,97308.54
2019-06-10T06:04:24.618Z,97317.73
2019-06-10T06:06:53.152Z,97308.27
2019-06-10T06:09:22.072Z,97325.11
2019-06-10T06:11:48.633Z,97323.00
2019-06-10T06:14:15.434Z,97321.16
2019-06-10T06:16:43.324Z,97324.31
2019-06-10T06:19:12.438Z,97332.98
2019-06-10T06:21:42.789Z,97344.82
2019-06-10T06:24:07.454Z,97360.86
2019-06-10T06:26:37.930Z,97389.52
2019-06-10T06:29:02.752Z,97385.58
2019-06-10T06:31:30.780Z,97393.46
2019-06-10T06:33:58.006Z,97395.57
2019-06-10T06:36:24.799Z,97384.78
2019-06-10T06:38:53.106Z,97378.21
2019-06-10T06:41:22.431Z,97381.09
2019-06-10T06:43:48.660Z,97392.94
2019-06-10T06:46:15.466Z,97386.66
2019-06-10T06:48:43.796Z,97379.34
2019-06-10T06:51:13.058Z,97366.20
2019-06-10T06:53:45.439Z,97363.58
2019-06-10T06:56:07.949Z,97359.09
2019-06-10T06:58:36.678Z,97357.44
2019-06-10T07:01:10.243Z,97351.33
2019-06-10T07:03:34.556Z,97352.11
2019-06-10T07:06:02.643Z,97350.02
2019-06-10T07:08:30.257Z,97338.95
2019-06-10T07:10:57.647Z,97327.48
2019-06-10T07:13:24.426Z,97320.89
2019-06-10T07:15:53.446Z,97313.55
2019-06-10T07:18:19.735Z,97353.88
2019-06-10T07:20:46.531Z,97423.91
2019-06-10T07:23:13.370Z,97404.75
2019-06-10T07:25:42.262Z,97412.84
2019-06-10T07:28:08.689Z,97402.23
2019-06-10T07:30:38.818Z,97366.80
2019-06-10T07:33:03.949Z,97334.78
2019-06-10T07:35:33.025Z,97345.05
2019-06-10T07:37:59.265Z,97332.09
2019-06-10T07:40:26.047Z,97331.55
2019-06-10T07:42:53.144Z,97316.03
2019-06-10T07:45:22.027Z,97323.88
2019-06-10T07:47:48.594Z,97318.16
2019-06-10T07:50:15.360Z,97310.52
2019-06-10T07:52:45.039Z,97286.81
2019-06-10T07:55:12.715Z,97287.33
2019-06-10T07:57:39.383Z,97303.66
2019-06-10T08:00:06.360Z,97320.23
2019-06-10T08:02:34.083Z,97326.92
2019-06-10T08:05:03.523Z,97336.00
2019-06-10T08:07:29.622Z,97316.28
2019-06-10T08:09:56.405Z,97289.61
2019-06-10T08:12:23.416Z,97292.68
2019-06-10T08:14:53.020Z,97279.52
2019-06-10T08:17:18.850Z,97288.19
2019-06-10T08:19:49.533Z,97274.38
2019-06-10T08:22:29.789Z,97260.78
2019-06-10T08:24:45.208Z,97269.98
2019-06-10T08:27:12.072Z,97257.66
2019-06-10T08:29:39.114Z,97292.64
2019-06-10T08:32:05.910Z,97307.09
2019-06-10T08:34:33.068Z,97309.47
2019-06-10T08:37:04.097Z,97314.20
2019-06-10T08:39:28.475Z,97311.84
2019-06-10T08:41:55.253Z,97312.11
2019-06-10T08:44:23.010Z,97315.28
2019-06-10T08:46:52.303Z,97293.47
2019-06-10T08:49:18.630Z,97290.86
2019-06-10T08:51:48.321Z,97286.91
2019-06-10T08:54:14.176Z,97260.91
2019-06-10T08:56:45.160Z,97306.93
2019-06-10T08:59:09.521Z,97341.36
2019-06-10T09:01:37.730Z,97334.79
2019-06-10T09:04:04.835Z,97315.34
2019-06-10T09:06:32.947Z,97340.58
2019-06-10T09:08:59.928Z,97303.27
2019-06-10T09:11:26.734Z,97308.52
2019-06-10T09:13:53.514Z,97323.77
2019-06-10T09:16:22.645Z,97303.02
2019-06-10T09:18:51.117Z,97304.08
2019-06-10T09:21:17.426Z,97305.23
2019-06-10T09:23:49.263Z,97291.05
2019-06-10T09:26:12.881Z,97304.70
2019-06-10T09:28:41.504Z,97295.20
2019-06-10T09:31:08.441Z,97285.44
2019-06-10T09:33:35.435Z,97283.33
2019-06-10T09:36:03.303Z,97272.02
2019-06-10T09:38:33.471Z,97287.80
2019-06-10T09:41:04.884Z,97277.55
2019-06-10T09:43:28.580Z,97285.44
2019-06-10T09:45:56.774Z,97282.02
2019-06-10T09:48:24.170Z,97273.91
2019-06-10T09:50:57.504Z,97268.35
2019-06-10T09:53:30.182Z,97270.98
2019-06-10T09:55:50.684Z,97268.35
2019-06-10T09:58:17.082Z,97267.33
2019-06-10T10:00:47.288Z,97258.63
2019-06-10T10:03:12.577Z,97264.97
2019-06-10T10:05:43.228Z,97264.45
2019-06-10T10:08:08.138Z,97264.72
2019-06-10T10:10:35.241Z,97256.83
2019-06-10T10:13:02.699Z,97243.42
2019-06-10T10:15:31.632Z,97229.50
2019-06-10T10:17:58.678Z,97220.82
2019-06-10T10:20:25.596Z,97222.92
2019-06-10T10:22:55.129Z,97238.17
2019-06-10T10:25:23.412Z,97236.33
2019-06-10T10:27:53.159Z,97230.28
2019-06-10T10:30:18.561Z,97231.08
2019-06-10T10:32:47.617Z,97228.70
2019-06-10T10:35:14.348Z,97234.22
2019-06-10T10:37:42.399Z,97221.88
2019-06-10T10:40:09.246Z,97223.19
2019-06-10T10:42:45.487Z,97222.40
2019-06-10T10:45:04.843Z,97226.61
2019-06-10T10:47:33.503Z,97222.40
2019-06-10T10:50:02.778Z,97213.77
2019-06-10T10:52:28.920Z,97211.42
2019-06-10T10:54:55.780Z,97218.52
2019-06-10T10:57:23.229Z,97215.09
2019-06-10T10:59:52.465Z,97214.83
2019-06-10T11:02:18.631Z,97211.41
2019-06-10T11:04:46.220Z,97208.00
2019-06-10T11:07:14.234Z,97199.59
2019-06-10T11:09:42.395Z,97195.38
2019-06-10T11:12:09.722Z,97191.96
2019-06-10T11:14:36.512Z,97200.11
2019-06-10T11:17:03.328Z,97181.72
2019-06-10T11:19:32.138Z,97173.30
2019-06-10T11:21:58.617Z,97170.94
2019-06-10T11:24:36.785Z,97164.63
2019-06-10T11:26:56.493Z,97168.57
2019-06-10T11:29:22.419Z,97164.11
2019-06-10T11:31:50.463Z,97163.58
2019-06-10T11:34:19.879Z,97173.84
2019-06-10T11:36:47.874Z,97169.62
2019-06-10T11:39:14.798Z,97164.38
2019-06-10T11:41:43.621Z,97164.38
2019-06-10T11:44:10.071Z,97162.01
2019-06-10T11:46:36.855Z,97155.96
2019-06-10T11:49:04.066Z,97143.34
2019-06-10T11:51:30.911Z,97135.46
2019-06-10T11:53:58.924Z,97127.05
2019-06-10T11:56:25.920Z,97119.42
2019-06-10T11:58:54.950Z,97122.58
2019-06-10T12:01:22.927Z,97114.70
2019-06-10T12:03:51.158Z,97108.12
2019-06-10T12:06:18.450Z,97099.19
2019-06-10T12:08:45.264Z,97099.19
2019-06-10T12:11:12.662Z,97077.38
2019-06-10T12:13:42.512Z,97070.80
2019-06-10T12:18:36.810Z,97065.55
2019-06-10T12:21:04.029Z,97053.72
2019-06-10T12:23:33.616Z,97052.44
2019-06-10T12:26:00.882Z,97040.87
2019-06-10T12:28:27.895Z,97047.97
2019-06-10T12:30:59.242Z,97040.61
2019-06-10T12:33:25.405Z,97034.56
2019-06-10T12:35:54.376Z,97023.52
2019-06-10T12:38:22.497Z,97020.63
2019-06-10T12:40:48.698Z,97016.42
2019-06-10T12:43:15.474Z,97009.06
2019-06-10T12:45:43.306Z,97015.90
2019-06-10T12:48:13.164Z,97009.33
2019-06-10T12:50:39.558Z,96994.34
2019-06-10T12:53:07.320Z,97009.33
2019-06-10T12:55:42.323Z,97000.39
2019-06-10T12:58:05.433Z,97004.86
2019-06-10T13:00:33.249Z,97000.39
2019-06-10T13:03:02.558Z,96993.29
2019-06-10T13:05:28.651Z,96998.81
2019-06-10T13:07:55.540Z,96999.33
2019-06-10T13:10:22.625Z,97003.80
2019-06-10T13:12:52.353Z,96990.40
2019-06-10T13:15:18.007Z,96984.09
2019-06-10T13:17:44.782Z,96983.83
2019-06-10T13:20:13.627Z,96982.78
2019-06-10T13:22:40.114Z,96978.30
2019-06-10T13:25:07.021Z,96975.67
2019-06-10T13:27:33.862Z,96976.47
2019-06-10T13:30:01.411Z,96967.00
2019-06-10T13:32:29.356Z,96969.11
2019-06-10T13:34:56.463Z,96961.22
2019-06-10T13:37:23.292Z,96961.48
2019-06-10T13:39:52.324Z,96950.70
2019-06-10T13:42:18.575Z,96954.13
2019-06-10T13:44:45.369Z,96948.86
2019-06-10T13:47:14.825Z,96944.39
2019-06-10T13:49:42.816Z,96933.35
2019-06-10T13:52:14.026Z,96925.73
2019-06-10T13:54:37.902Z,96917.05
2019-06-10T13:57:06.869Z,96916.80
2019-06-10T13:59:33.303Z,96913.64
2019-06-10T14:02:02.712Z,96906.02
2019-06-10T14:04:28.635Z,96894.97
2019-06-10T14:06:57.238Z,96891.03
2019-06-10T14:09:24.332Z,96892.34
2019-06-10T14:11:51.346Z,96882.36
2019-06-10T14:14:18.396Z,96870.00
2019-06-10T14:16:45.303Z,96856.06
2019-06-10T14:19:15.995Z,96847.66
2019-06-10T14:21:42.539Z,96846.87
2019-06-10T14:24:10.368Z,96847.66
2019-06-10T14:26:42.266Z,96847.66
2019-06-10T14:29:07.380Z,96851.33
2019-06-10T14:31:43.437Z,96850.02
2019-06-10T14:34:05.334Z,96842.92
2019-06-10T14:36:32.522Z,96832.14
2019-06-10T14:38:59.514Z,96828.45
2019-06-10T14:41:26.310Z,96819.00
2019-06-10T14:43:53.221Z,96819.00
2019-06-10T14:46:22.919Z,96818.23
2019-06-10T14:48:49.290Z,96806.65
2019-06-10T14:51:17.179Z,96791.91
2019-06-10T14:53:44.132Z,96788.25
2019-06-10T14:56:14.900Z,96792.98
2019-06-10T14:58:39.443Z,96805.34
2019-06-10T15:01:07.563Z,96815.06
2019-06-10T15:03:34.834Z,96820.59
2019-06-10T15:06:03.170Z,96833.20
2019-06-10T15:08:32.224Z,96833.48
2019-06-10T15:10:58.806Z,96837.94
2019-06-10T15:13:25.583Z,96836.89
2019-06-10T15:15:53.177Z,96857.12
2019-06-10T15:18:23.178Z,96883.94
2019-06-10T15:20:49.029Z,96779.88
2019-06-10T15:23:18.666Z,96893.41
2019-06-10T15:25:52.527Z,96905.24
2019-06-10T15:28:15.899Z,96903.92
2019-06-10T15:30:43.190Z,96905.24
2019-06-10T15:33:11.161Z,96924.69
2019-06-10T15:35:38.734Z,96925.48
2019-06-10T15:38:05.548Z,96938.36
2019-06-10T15:40:32.549Z,96932.31
2019-06-10T15:42:59.372Z,96929.69
2019-06-10T15:45:26.167Z,96935.47
2019-06-10T15:47:53.201Z,96942.58
2019-06-10T15:50:21.171Z,96952.56
2019-06-10T15:52:48.704Z,96946.78
2019-06-10T15:55:40.658Z,96936.53
2019-06-10T15:57:46.553Z,96927.33
2019-06-10T16:00:18.588Z,96935.21
2019-06-10T16:02:41.045Z,96933.90
2019-06-10T16:05:07.808Z,96936.00
2019-06-10T16:07:34.575Z,96929.14
2019-06-10T16:10:02.856Z,96934.16
2019-06-10T16:12:29.834Z,96934.39
2019-06-10T16:14:56.601Z,96938.34
2019-06-10T16:17:23.410Z,96955.72
2019-06-10T16:19:52.830Z,96949.14
2019-06-10T16:22:19.600Z,96960.97
2019-06-10T16:24:46.523Z,96966.23
2019-06-10T16:27:14.213Z,96952.30
2019-06-10T16:29:42.416Z,96938.09
2019-06-10T16:32:09.385Z,96931.26
2019-06-10T16:34:36.184Z,96952.30
2019-06-10T16:37:03.258Z,96956.50
2019-06-10T16:39:32.432Z,96959.92
2019-06-10T16:41:58.637Z,96962.02
2019-06-10T16:44:27.817Z,96966.76
2019-06-10T16:46:53.911Z,96951.77
2019-06-10T16:49:21.419Z,96926.51
2019-06-10T16:51:48.252Z,96910.73
2019-06-10T16:54:15.032Z,96897.36
2019-06-10T16:56:43.476Z,96889.20
2019-06-10T16:59:12.282Z,96866.58
2019-06-10T17:01:39.152Z,96868.18
2019-06-10T17:04:05.916Z,96869.20
2019-06-10T17:06:32.822Z,96882.11
2019-06-10T17:08:59.667Z,96898.41
2019-06-10T17:11:28.745Z,96899.72
2019-06-10T17:13:54.954Z,96893.65
2019-06-10T17:16:23.268Z,96899.72
2019-06-10T17:18:50.254Z,96895.25
2019-06-10T17:21:17.032Z,96896.28
2019-06-10T17:23:43.832Z,96889.70
2019-06-10T17:26:10.636Z,96896.28
2019-06-10T17:28:37.404Z,96912.05
2019-06-10T17:31:04.213Z,96915.50
2019-06-10T17:33:35.117Z,96918.12
2019-06-10T17:35:59.551Z,96927.82
2019-06-10T17:38:26.937Z,96931.27
2019-06-10T17:40:53.932Z,96933.08
2019-06-10T17:43:20.976Z,96927.82
2019-06-10T17:45:47.876Z,96943.59
2019-06-10T17:48:14.657Z,96959.37
2019-06-10T17:50:42.893Z,96969.39
2019-06-10T17:53:09.900Z,96980.40
2019-06-10T17:55:36.694Z,96995.15
2019-06-10T17:58:03.840Z,96994.86
2019-06-10T18:00:31.671Z,96981.72
2019-06-10T18:02:59.197Z,96965.16
2019-06-10T18:05:27.162Z,96962.53
2019-06-10T18:07:54.053Z,96969.88
2019-06-10T18:10:22.491Z,96972.02
2019-06-10T18:12:49.349Z,96957.27
2019-06-10T18:15:16.140Z,96945.97
2019-06-10T18:17:42.918Z,96923.63
2019-06-10T18:20:09.702Z,96926.77
2019-06-10T18:22:37.122Z,96937.02
2019-06-10T18:25:04.337Z,96936.23
2019-06-10T18:27:33.670Z,96918.36
2019-06-10T18:30:02.296Z,96910.47
2019-06-10T18:32:28.163Z,96909.16
2019-06-10T18:34:54.935Z,96917.84
2019-06-10T18:37:22.773Z,96924.43
2019-06-10T18:39:52.120Z,96931.26
2019-06-10T18:42:18.204Z,96925.95
2019-06-10T18:44:44.986Z,96927.51
2019-06-10T18:47:13.432Z,96934.34
2019-06-10T18:49:42.729Z,96930.96
2019-06-10T18:52:08.926Z,96927.31
2019-06-10T18:54:37.223Z,96918.10
2019-06-10T18:57:04.307Z,96919.44
2019-06-10T18:59:33.165Z,96924.70
2019-06-10T19:02:02.673Z,96939.95
2019-06-10T19:04:28.450Z,96939.42
2019-06-10T19:06:55.445Z,96937.84
2019-06-10T19:09:22.248Z,96931.00
2019-06-10T19:11:49.090Z,96927.58
2019-06-10T19:14:15.866Z,96933.36
2019-06-10T19:16:43.063Z,96931.52
2019-06-10T19:19:12.508Z,96934.16
2019-06-10T19:21:38.592Z,96941.77
2019-06-10T19:24:05.450Z,96927.05
2019-06-10T19:26:33.975Z,96919.42
2019-06-10T19:29:00.789Z,96933.89
2019-06-10T19:31:29.490Z,96949.13
2019-06-10T19:33:56.584Z,96960.97
2019-06-10T19:36:23.406Z,96959.65
2019-06-10T19:38:50.227Z,96961.75
2019-06-10T19:41:17.087Z,96950.98
2019-06-10T19:43:45.444Z,96961.75
2019-06-10T19:46:12.876Z,96964.91
2019-06-10T19:48:43.368Z,96976.21
2019-06-10T19:51:08.234Z,96968.06
2019-06-10T19:53:36.047Z,96956.50
2019-06-10T19:56:03.574Z,96967.01
2019-06-10T19:58:32.347Z,96962.54
2019-06-10T20:00:58.933Z,96959.13
2019-06-10T20:03:25.736Z,96955.18
2019-06-10T20:05:53.012Z,96949.92
2019-06-10T20:08:19.848Z,96936.52
2019-06-10T20:10:46.629Z,96918.38
2019-06-10T20:13:13.430Z,96913.64
2019-06-10T20:15:41.485Z,96901.81
2019-06-10T20:18:08.980Z,96890.50
2019-06-10T20:20:36.085Z,96884.72
2019-06-10T20:23:03.291Z,96879.47
2019-06-10T20:25:30.205Z,96870.00
2019-06-10T20:27:57.008Z,96860.80
2019-06-10T20:30:28.734Z,96857.39
2019-06-10T20:32:55.978Z,96849.76
2019-06-10T20:35:23.140Z,96855.27
2019-06-10T20:37:49.955Z,96856.59
2019-06-10T20:40:16.758Z,96861.06
2019-06-10T20:42:44.423Z,96861.06
2019-06-10T20:45:13.162Z,96860.00
2019-06-10T20:47:43.077Z,96859.22
2019-06-10T20:50:08.794Z,96850.02
2019-06-10T20:52:35.630Z,96842.92
2019-06-10T20:55:02.995Z,96836.61
2019-06-10T20:57:30.131Z,96825.57
2019-06-10T20:59:56.930Z,96823.73
2019-06-10T21:02:23.807Z,96825.57
2019-06-10T21:04:53.049Z,96826.36
2019-06-10T21:07:19.125Z,96815.84
2019-06-10T21:09:47.181Z,96817.16
2019-06-10T21:12:14.593Z,96820.57
2019-06-10T21:14:42.748Z,96834.50
2019-06-10T21:17:12.099Z,96842.92
2019-06-10T21:19:38.571Z,96856.59
2019-06-10T21:22:05.366Z,96856.59
2019-06-10T21:24:32.434Z,96855.53
2019-06-10T21:26:59.666Z,96868.16
2019-06-10T21:29:26.446Z,96865.27
2019-06-10T21:31:54.775Z,96880.51
2019-06-10T21:34:22.430Z,96876.56
2019-06-10T21:36:49.472Z,96863.16
2019-06-10T21:39:16.276Z,96866.05
2019-06-10T21:41:45.188Z,96869.20
2019-06-10T21:44:13.184Z,96867.36
2019-06-10T21:46:40.020Z,96866.84
2019-06-10T21:49:06.811Z,96875.78
2019-06-10T21:51:34.637Z,96879.19
2019-06-10T21:54:02.987Z,96888.66
2019-06-10T21:56:32.634Z,96891.81
2019-06-10T21:58:58.512Z,96889.71
2019-06-10T22:01:25.385Z,96887.87
2019-06-10T22:03:59.928Z,96889.45
2019-06-10T22:06:22.817Z,96897.59
2019-06-10T22:08:50.077Z,96900.23
2019-06-10T22:11:17.622Z,96902.86
2019-06-10T22:13:44.401Z,96898.91
2019-06-10T22:16:11.301Z,96902.86
2019-06-10T22:18:39.184Z,96902.06
2019-06-10T22:21:06.014Z,96907.33
2019-06-10T22:23:33.169Z,96906.80
2019-06-10T22:26:02.584Z,96902.06
2019-06-10T22:28:28.704Z,96899.44
2019-06-10T22:31:14.663Z,96908.12
2019-06-10T22:33:24.100Z,96901.54
2019-06-10T22:35:54.546Z,96908.12
2019-06-10T22:38:19.486Z,96923.36
2019-06-10T22:40:46.854Z,96937.83
2019-06-10T22:43:13.889Z,96942.30
2019-06-10T22:45:42.366Z,96952.28
2019-06-10T22:48:09.217Z,96969.90
2019-06-10T22:50:36.025Z,96943.87
2019-06-10T22:53:03.886Z,96966.48
2019-06-10T22:55:32.148Z,96941.50
2019-06-10T22:58:02.106Z,96950.97
2019-06-10T23:00:27.786Z,96939.14
2019-06-10T23:02:56.218Z,96941.50
2019-06-10T23:05:23.511Z,96945.98
2019-06-10T23:07:52.816Z,96938.88
2019-06-10T23:10:18.915Z,96931.52
2019-06-10T23:12:45.729Z,96916.27
2019-06-10T23:15:13.051Z,96909.17
2019-06-10T23:17:42.187Z,96893.92
2019-06-10T23:20:08.464Z,96880.25
2019-06-10T23:22:35.244Z,96879.47
2019-06-10T23:25:02.795Z,96878.15
2019-06-10T23:27:30.034Z,96876.84
2019-06-10T23:29:57.569Z,96870.52
2019-06-10T23:32:25.616Z,96859.22
2019-06-10T23:34:54.703Z,96865.79
2019-06-10T23:37:22.952Z,96866.58
2019-06-10T23:39:50.611Z,96858.43
2019-06-10T23:42:17.547Z,96853.43
2019-06-10T23:44:44.383Z,96856.59
2019-06-10T23:47:12.760Z,96861.31
2019-06-10T23:49:39.625Z,96871.31
2019-06-10T23:52:06.467Z,96877.88
2019-06-10T23:54:33.413Z,96887.61
2019-06-10T23:57:01.433Z,96882.35
2019-06-10T23:59:28.828Z,96883.66
